createdAt,value
2023-03-17T00:01:51.141Z,101030.59
2023-03-17T00:06:56.728Z,101034.22
2023-03-17T00:12:00.781Z,101032.56
2023-03-17T00:17:02.475Z,101031.16
2023-03-17T00:22:06.726Z,101038.13
2023-03-17T00:27:13.260Z,101036.88
2023-03-17T00:32:17.686Z,101022.34
2023-03-17T00:37:21.831Z,101009.91
2023-03-17T00:42:26.814Z,100999.59
2023-03-17T00:47:30.855Z,100997.91
2023-03-17T00:52:36.242Z,101009.66
2023-03-17T00:57:39.419Z,101020.56
2023-03-17T01:02:41.435Z,101005.06
2023-03-17T01:07:48.118Z,101008.81
2023-03-17T01:12:53.352Z,101006.31
2023-03-17T01:17:57.577Z,101010.91
2023-03-17T01:23:00.520Z,100999.59
2023-03-17T01:28:02.256Z,100993.47
2023-03-17T01:33:08.479Z,101013.16
2023-03-17T01:38:10.612Z,101002.81
2023-03-17T01:43:12.514Z,100990.69
2023-03-17T01:48:15.265Z,100987.34
2023-03-17T01:53:20.467Z,100978.25
2023-03-17T01:58:24.179Z,100981.06
2023-03-17T02:03:29.819Z,100979.94
2023-03-17T02:08:33.974Z,100972.00
2023-03-17T02:13:37.216Z,100954.28
2023-03-17T02:18:38.918Z,100936.41
2023-03-17T02:23:43.679Z,100916.84
2023-03-17T02:28:46.148Z,100912.25
2023-03-17T02:33:47.889Z,100929.56
2023-03-17T02:38:49.823Z,100922.88
2023-03-17T02:43:56.935Z,100920.66
2023-03-17T02:49:02.031Z,100916.94
2023-03-17T02:54:06.367Z,100901.28
2023-03-17T02:59:10.221Z,100900.75
2023-03-17T03:04:12.012Z,100904.25
2023-03-17T03:09:15.179Z,100899.91
2023-03-17T03:14:17.038Z,100900.59
2023-03-17T03:19:18.742Z,100900.31
2023-03-17T03:24:22.924Z,100893.91
2023-03-17T03:29:24.696Z,100884.25
2023-03-17T03:34:33.197Z,100890.16
2023-03-17T03:39:39.436Z,100898.81
2023-03-17T03:44:43.230Z,100894.50
2023-03-17T03:49:47.273Z,100893.66
2023-03-17T03:54:51.213Z,100896.03
2023-03-17T03:59:56.148Z,100905.66
2023-03-17T04:05:00.090Z,100881.69
2023-03-17T04:10:04.589Z,100870.81
2023-03-17T04:15:09.147Z,100856.16
2023-03-17T04:20:14.649Z,100861.56
2023-03-17T04:25:21.630Z,100882.06
2023-03-17T04:30:23.388Z,100891.56
2023-03-17T04:35:25.098Z,100895.06
2023-03-17T04:40:29.517Z,100895.06
2023-03-17T04:45:33.750Z,100874.97
2023-03-17T04:50:35.655Z,100869.78
2023-03-17T04:55:37.551Z,100867.00
2023-03-17T05:00:39.441Z,100876.47
2023-03-17T05:05:41.144Z,100865.88
2023-03-17T05:10:42.926Z,100874.13
2023-03-17T05:15:47.743Z,100855.31
2023-03-17T05:20:51.731Z,100852.94
2023-03-17T05:25:53.734Z,100862.00
2023-03-17T05:30:58.353Z,100851.84
2023-03-17T05:36:02.434Z,100853.66
2023-03-17T05:41:04.281Z,100860.91
2023-03-17T05:46:06.060Z,100871.75
2023-03-17T05:51:08.221Z,100864.53
2023-03-17T05:56:12.786Z,100867.63
2023-03-17T06:01:14.560Z,100868.31
2023-03-17T06:06:18.710Z,100868.72
2023-03-17T06:11:21.487Z,100858.94
2023-03-17T06:16:23.381Z,100863.00
2023-03-17T06:21:25.662Z,100865.38
2023-03-17T06:26:29.684Z,100854.34
2023-03-17T06:31:31.442Z,100850.97
2023-03-17T06:36:33.656Z,100859.31
2023-03-17T06:41:35.945Z,100843.06
2023-03-17T06:46:40.064Z,100849.13
2023-03-17T06:51:46.707Z,100862.59
2023-03-17T06:56:48.388Z,100876.63
2023-03-17T07:01:52.442Z,100870.81
2023-03-17T07:06:54.536Z,100868.38
2023-03-17T07:12:04.885Z,100868.69
2023-03-17T07:17:12.144Z,100867.88
2023-03-17T07:22:13.914Z,100871.03
2023-03-17T07:27:18.816Z,100872.34
2023-03-17T07:32:24.710Z,100868.00
2023-03-17T07:37:26.416Z,100865.00
2023-03-17T07:42:30.459Z,100853.25
2023-03-17T07:47:34.510Z,100850.44
2023-03-17T07:52:38.487Z,100852.69
2023-03-17T07:57:43.411Z,100831.97
2023-03-17T08:02:48.137Z,100829.94
2023-03-17T08:07:53.722Z,100808.66
2023-03-17T08:13:00.822Z,100825.63
2023-03-17T08:18:02.519Z,100806.31
2023-03-17T08:23:04.296Z,100796.81
2023-03-17T08:28:09.475Z,100880.56
2023-03-17T08:33:11.324Z,100869.34
2023-03-17T08:38:16.086Z,100861.84
2023-03-17T08:43:18.802Z,100850.59
2023-03-17T08:48:23.089Z,100844.97
2023-03-17T08:53:28.270Z,100832.97
2023-03-17T08:58:30.206Z,100836.97
2023-03-17T09:03:33.106Z,100828.09
2023-03-17T09:08:38.637Z,100826.16
2023-03-17T09:13:41.558Z,100818.81
2023-03-17T09:18:44.455Z,100806.03
2023-03-17T09:23:46.954Z,100798.59
2023-03-17T09:28:51.524Z,100801.34
2023-03-17T09:33:53.573Z,100782.75
2023-03-17T09:38:55.402Z,100781.22
2023-03-17T09:44:08.852Z,100772.94
2023-03-17T09:49:15.078Z,100774.13
2023-03-17T09:54:27.038Z,100764.28
2023-03-17T09:59:34.438Z,100765.91
2023-03-17T10:04:37.169Z,100758.00
2023-03-17T10:09:54.061Z,100776.09
2023-03-17T10:15:06.762Z,100773.09
2023-03-17T10:20:13.703Z,100777.22
2023-03-17T10:25:29.491Z,100769.44
2023-03-17T10:30:34.537Z,100784.16
2023-03-17T10:35:39.463Z,100777.03
2023-03-17T10:40:55.635Z,100794.81
2023-03-17T10:46:03.340Z,100789.69
2023-03-17T10:51:13.277Z,100782.03
2023-03-17T10:56:27.394Z,100784.75
2023-03-17T11:01:29.414Z,100790.41
2023-03-17T11:06:39.377Z,100775.00
2023-03-17T11:11:47.059Z,100787.84
2023-03-17T11:17:04.687Z,100773.16
2023-03-17T11:22:21.736Z,100787.47
2023-03-17T11:28:01.358Z,100785.78
2023-03-17T11:33:35.452Z,100780.00
2023-03-17T11:39:09.916Z,100786.38
2023-03-17T11:44:37.192Z,100789.06
2023-03-17T11:49:40.130Z,100785.91
2023-03-17T11:55:07.880Z,100786.81
2023-03-17T12:00:30.153Z,100790.69
2023-03-17T12:05:37.283Z,100791.28
2023-03-17T12:11:01.905Z,100789.84
2023-03-17T12:16:29.441Z,100784.19
2023-03-17T12:21:36.996Z,100776.59
2023-03-17T12:26:52.783Z,100785.09
2023-03-17T12:32:03.839Z,100778.31
2023-03-17T12:37:05.724Z,100778.31
2023-03-17T12:42:33.717Z,100801.81
2023-03-17T12:47:57.275Z,100794.28
2023-03-17T12:53:19.750Z,100788.19
2023-03-17T12:58:44.101Z,100791.00
2023-03-17T13:04:12.865Z,100786.59
2023-03-17T13:09:30.250Z,100786.41
2023-03-17T13:14:48.166Z,100798.81
2023-03-17T13:20:00.674Z,100790.41
2023-03-17T13:25:14.389Z,100806.56
2023-03-17T13:30:26.925Z,100813.69
2023-03-17T13:35:43.142Z,100793.38
2023-03-17T13:40:57.015Z,100780.91
2023-03-17T13:46:41.979Z,100793.78
2023-03-17T13:51:59.417Z,100801.75
2023-03-17T13:57:23.628Z,100803.22
2023-03-17T14:02:27.947Z,100811.25
2023-03-17T14:07:44.376Z,100792.78
2023-03-17T14:12:55.219Z,100798.88
2023-03-17T14:18:14.537Z,100788.16
2023-03-17T14:23:18.606Z,100795.03
2023-03-17T14:28:36.634Z,100792.72
2023-03-17T14:33:42.386Z,100781.19
2023-03-17T14:38:52.154Z,100784.56
2023-03-17T14:43:58.476Z,100780.31
2023-03-17T14:49:02.868Z,100788.16
2023-03-17T14:54:13.922Z,100801.22
2023-03-17T14:59:36.018Z,100793.91
2023-03-17T15:04:53.326Z,100771.09
2023-03-17T15:10:07.344Z,100763.91
2023-03-17T15:15:23.491Z,100764.16
2023-03-17T15:20:25.356Z,100761.81
2023-03-17T15:25:34.451Z,100752.75
2023-03-17T15:30:48.245Z,100758.50
2023-03-17T15:35:52.814Z,100759.47
2023-03-17T15:40:57.411Z,100775.34
2023-03-17T15:46:04.723Z,100774.00
2023-03-17T15:51:10.207Z,100765.19
2023-03-17T15:56:19.132Z,100766.63
2023-03-17T16:01:25.112Z,100776.50
2023-03-17T16:06:28.297Z,100755.19
2023-03-17T16:11:31.421Z,100751.75
2023-03-17T16:16:37.565Z,100751.47
2023-03-17T16:21:39.682Z,100747.84
2023-03-17T16:26:41.373Z,100763.19
2023-03-17T16:31:45.164Z,100766.53
2023-03-17T16:36:48.433Z,100759.97
2023-03-17T16:41:55.014Z,100758.53
2023-03-17T16:46:56.870Z,100761.38
2023-03-17T16:52:00.871Z,100763.38
2023-03-17T16:57:02.571Z,100762.06
2023-03-17T17:02:04.479Z,100780.22
2023-03-17T17:07:08.606Z,100777.19
2023-03-17T17:12:12.829Z,100783.22
2023-03-17T17:17:14.816Z,100784.03
2023-03-17T17:22:22.109Z,100784.28
2023-03-17T17:27:28.406Z,100786.81
2023-03-17T17:32:32.367Z,100795.09
2023-03-17T17:37:34.519Z,100790.53
2023-03-17T17:42:36.258Z,100785.38
2023-03-17T17:47:38.325Z,100793.84
2023-03-17T17:52:40.076Z,100798.78
2023-03-17T17:57:42.070Z,100788.25
2023-03-17T18:02:44.344Z,100798.31
2023-03-17T18:07:46.209Z,100803.66
2023-03-17T18:12:48.891Z,100807.50
2023-03-17T18:17:51.549Z,100810.31
2023-03-17T18:22:54.077Z,100826.19
2023-03-17T18:28:00.901Z,100819.69
2023-03-17T18:33:07.357Z,100818.44
2023-03-17T18:38:09.146Z,100806.81
2023-03-17T18:43:15.413Z,100816.94
2023-03-17T18:48:17.270Z,100821.09
2023-03-17T18:53:19.000Z,100809.97
2023-03-17T18:58:20.789Z,100805.19
2023-03-17T19:03:27.392Z,100799.13
2023-03-17T19:08:31.636Z,100783.78
2023-03-17T19:13:33.925Z,100777.13
2023-03-17T19:18:36.771Z,100775.63
2023-03-17T19:23:41.500Z,100766.91
2023-03-17T19:28:43.604Z,100761.09
2023-03-17T19:33:47.993Z,100762.31
2023-03-17T19:38:53.012Z,100765.00
2023-03-17T19:43:56.807Z,100774.09
2023-03-17T19:48:58.654Z,100768.91
2023-03-17T19:54:06.145Z,100758.53
2023-03-17T19:59:08.977Z,100759.09
2023-03-17T20:04:14.098Z,100757.47
2023-03-17T20:09:18.117Z,100759.44
2023-03-17T20:14:20.821Z,100749.31
2023-03-17T20:19:22.607Z,100755.91
2023-03-17T20:24:26.933Z,100753.78
2023-03-17T20:29:29.240Z,100757.28
2023-03-17T20:34:34.671Z,100752.94
2023-03-17T20:39:38.896Z,100744.91
2023-03-17T20:44:45.265Z,100729.41
2023-03-17T20:49:47.923Z,100742.38
2023-03-17T20:54:52.683Z,100735.34
2023-03-17T20:59:55.957Z,100710.75
2023-03-17T21:05:01.179Z,100730.09
2023-03-17T21:10:03.121Z,100726.16
2023-03-17T21:15:06.166Z,100742.16
2023-03-17T21:20:12.689Z,100725.03
2023-03-17T21:25:17.819Z,100735.03
2023-03-17T21:30:19.472Z,100725.31
2023-03-17T21:35:25.106Z,100710.84
2023-03-17T21:40:32.380Z,100709.00
2023-03-17T21:45:36.891Z,100702.81
2023-03-17T21:50:38.658Z,100711.03
2023-03-17T21:55:41.515Z,100703.81
2023-03-17T22:00:46.306Z,100702.53
2023-03-17T22:05:48.399Z,100705.22
2023-03-17T22:10:50.090Z,100714.53
2023-03-17T22:15:52.618Z,100725.88
2023-03-17T22:20:57.720Z,100724.09
2023-03-17T22:25:59.399Z,100727.44
2023-03-17T22:31:01.885Z,100729.19
2023-03-17T22:36:03.731Z,100721.25
2023-03-17T22:41:10.374Z,100731.41
2023-03-17T22:46:12.921Z,100716.09
2023-03-17T22:51:17.472Z,100717.94
2023-03-17T22:56:23.180Z,100708.72
2023-03-17T23:01:25.802Z,100712.03
2023-03-17T23:06:27.783Z,100718.69
2023-03-17T23:11:34.215Z,100716.66
2023-03-17T23:16:37.623Z,100715.81
2023-03-17T23:21:41.923Z,100708.28
2023-03-17T23:26:45.845Z,100720.88
2023-03-17T23:31:49.989Z,100720.22
2023-03-17T23:36:54.116Z,100721.97
2023-03-17T23:41:55.868Z,100721.66
2023-03-17T23:47:02.634Z,100725.22
2023-03-17T23:52:05.250Z,100725.50
2023-03-17T23:57:09.249Z,100729.47
